High Point, NC

3:39 AM EDT on July 07, 2015 (GMT -0400)
Carol Bay | | Change Station
CLOSE
Current Station
Personal Weather Station
Location: High Point, NC
Elevation: 853 ft
Nearby Weather Stations

Elev 853 ft 36.02 °N, 79.98 °W | Updated 5 seconds ago

Clear
Clear
69.0 °F
Feels Like 69.0 °F
N
0.0
Wind Variable Wind from NE
Gusts 0.0 mph

Today
High -- | Low -- °F
--% Chance of Precip.
Yesterday
High -- | Low -- °F
Precip. -- in
6:09 AM 8:39 PM
Waning Gibbous, 67% visible
Pressure 30.06 in
Visibility 10.0 miles
Clouds Few 25000 ft
Dew Point 68 °F
Humidity 96%
Rainfall 0.00 in
Snow Depth Not available.
UV 0 out of 12
Pollen 2.20 out of 12
Air Quality Not available.
Flu Activity Not available.
METAR KGSO 070654Z 20003KT 10SM FEW250 22/20 A3010 RMK AO2 SLP179 T02220200

More Conditions Fewer Conditions

Pressure 30.06 in
Visibility 10.0 miles
Clouds Few 25000 ft
Dew Point 68 °F
Humidity 96%
Rainfall 0.00 in
Snow Depth Not available.
UV 0 out of 12
Pollen 2.20 out of 12
Air Quality Not available.
Flu Activity Not available.
METAR KGSO 070654Z 20003KT 10SM FEW250 22/20 A3010 RMK AO2 SLP179 T02220200

More Conditions Fewer Conditions

10-Day Weather Forecast

×

Almanac

Astronomy

Jul. 07, 2015 Rise Set
Actual Time
Civil Twilight
Nautical Twilight
Astronomical Twilight
Moon
Length of Visible Light
Length of Day
Tomorrow will be .
, % of the Moon is Illuminated

Today's Extremes

State Highs State Lows

Community

WunderPhotos

Upload Photos

1,835,756 photos uploaded!

WunderBlogs® & News

Nearby

Air Quality

  Air Quality AQ Index Pollutant
Not available.

Snow Depth

Station Depth Elevation

Earthquake Activity

City Distance Mag. Time & Date
Minimum magnitude displayed is 2.5.

Coastal Water Temperatures

Place Temperature

Stations

Nearby Weather Stations

Station Location Temp. Windchill Dew Point Humidity Wind Precip. Elev Updated Type